TimeCST,TemperatureF,Dew PointF,Humidity,Sea Level PressureIn,VisibilityMPH,Wind Direction,Wind SpeedMPH,Gust SpeedMPH,PrecipitationIn,Events,Conditions,WindDirDegrees,DateUTC
12:53 AM,30.0,27.0,88,30.13,10.0,WNW,5.8,-,N/A,,Mostly Cloudy,290,2013-02-02 06:53:00
1:53 AM,28.9,25.0,85,30.13,10.0,NW,3.5,-,N/A,,Scattered Clouds,310,2013-02-02 07:53:00
2:53 AM,32.0,28.4,87,30.08,10.0,West,10.4,-,N/A,,Mostly Cloudy,260,2013-02-02 08:53:00
3:53 AM,30.0,27.0,88,30.14,10.0,NNW,8.1,-,N/A,,Scattered Clouds,330,2013-02-02 09:53:00
4:53 AM,34.0,28.9,82,30.14,10.0,WNW,10.4,-,N/A,,Mostly Cloudy,290,2013-02-02 10:53:00
5:53 AM,33.8,28.4,81,30.10,10.0,WNW,6.9,-,N/A,,Mostly Cloudy,290,2013-02-02 11:53:00
6:53 AM,30.0,27.0,88,30.17,10.0,WNW,6.9,-,N/A,,Clear,300,2013-02-02 12:53:00
7:53 AM,27.0,26.1,96,30.19,10.0,NW,4.6,-,N/A,,Partly Cloudy,320,2013-02-02 13:53:00
8:53 AM,33.1,28.9,85,30.18,10.0,Calm,Calm,-,N/A,,Clear,0,2013-02-02 14:53:00
9:53 AM,41.0,30.9,67,30.17,10.0,WNW,15.0,-,N/A,,Clear,300,2013-02-02 15:53:00
10:53 AM,46.0,28.9,51,30.17,10.0,WNW,17.3,25.3,N/A,,Clear,290,2013-02-02 16:53:00
11:53 AM,48.0,27.0,44,30.17,10.0,WNW,20.7,32.2,N/A,,Clear,300,2013-02-02 17:53:00
12:53 PM,52.0,25.0,35,30.13,10.0,NW,24.2,34.5,N/A,,Scattered Clouds,310,2013-02-02 18:53:00
1:53 PM,52.0,24.1,34,30.10,10.0,WNW,25.3,35.7,N/A,,Clear,300,2013-02-02 19:53:00
2:53 PM,53.1,23.0,31,30.09,10.0,NW,27.6,34.5,N/A,,Partly Cloudy,320,2013-02-02 20:53:00
3:53 PM,53.1,21.0,29,30.10,10.0,NW,28.8,40.3,N/A,,Scattered Clouds,310,2013-02-02 21:53:00
4:53 PM,50.0,21.9,33,30.11,10.0,NW,23.0,32.2,N/A,,Partly Cloudy,310,2013-02-02 22:53:00
5:53 PM,48.0,23.0,37,30.13,10.0,NW,21.9,33.4,N/A,,Overcast,320,2013-02-02 23:53:00
6:53 PM,44.1,24.1,45,30.16,10.0,NW,18.4,25.3,N/A,,Clear,320,2013-02-03 00:53:00
7:53 PM,39.0,23.0,53,30.19,10.0,WNW,9.2,-,N/A,,Clear,300,2013-02-03 01:53:00
8:53 PM,39.0,25.0,57,30.20,10.0,NW,12.7,-,N/A,,Clear,310,2013-02-03 02:53:00
9:53 PM,36.0,25.0,64,30.22,10.0,NW,12.7,-,N/A,,Clear,320,2013-02-03 03:53:00
10:53 PM,32.0,25.0,75,30.23,10.0,NW,9.2,-,N/A,,Clear,310,2013-02-03 04:53:00
11:53 PM,33.1,24.1,70,30.23,10.0,NW,11.5,-,N/A,,Clear,320,2013-02-03 05:53:00